createdAt,value
2018-02-01T00:01:04.921Z,99924.52
2018-02-01T00:03:32.550Z,99913.59
2018-02-01T00:06:00.666Z,99915.40
2018-02-01T00:08:28.211Z,99911.89
2018-02-01T00:10:55.760Z,99909.30
2018-02-01T00:13:23.356Z,99906.25
2018-02-01T00:15:50.899Z,99902.34
2018-02-01T00:18:18.494Z,99900.64
2018-02-01T00:20:46.627Z,99900.61
2018-02-01T00:23:14.166Z,99895.39
2018-02-01T00:25:41.750Z,99894.12
2018-02-01T00:28:09.301Z,99895.47
2018-02-01T00:30:36.900Z,99908.16
2018-02-01T00:33:04.446Z,99903.44
2018-02-01T00:35:32.070Z,99901.70
2018-02-01T00:37:59.699Z,99903.01
2018-02-01T00:40:27.248Z,99893.86
2018-02-01T00:42:54.892Z,99893.05
2018-02-01T00:45:22.506Z,99885.63
2018-02-01T00:47:50.095Z,99879.99
2018-02-01T00:50:17.634Z,99879.17
2018-02-01T00:52:45.255Z,99880.48
2018-02-01T00:55:12.812Z,99876.59
2018-02-01T00:57:40.358Z,99873.54
2018-02-01T01:00:08.605Z,99872.26
2018-02-01T01:02:36.155Z,99871.44
2018-02-01T01:05:03.751Z,99864.45
2018-02-01T01:07:31.308Z,99864.06
2018-02-01T01:09:58.866Z,99862.36
2018-02-01T01:12:26.463Z,99854.06
2018-02-01T01:14:54.016Z,99859.77
2018-02-01T01:17:22.035Z,99858.10
2018-02-01T01:19:49.574Z,99862.92
2018-02-01T01:22:17.123Z,99862.50
2018-02-01T01:24:44.751Z,99860.30
2018-02-01T01:27:12.299Z,99853.38
2018-02-01T01:29:39.868Z,99858.20
2018-02-01T01:32:07.489Z,99859.58
2018-02-01T01:34:35.627Z,99864.01
2018-02-01T01:37:03.201Z,99863.58
2018-02-01T01:39:30.778Z,99860.07
2018-02-01T01:41:59.491Z,99854.89
2018-02-01T01:44:27.088Z,99858.83
2018-02-01T01:46:54.658Z,99852.30
2018-02-01T01:49:22.256Z,99855.48
2018-02-01T01:51:50.104Z,99849.45
2018-02-01T01:54:17.668Z,99850.31
2018-02-01T01:56:45.635Z,99844.24
2018-02-01T01:59:13.240Z,99839.00
2018-02-01T02:01:40.844Z,99845.59
2018-02-01T02:04:08.435Z,99841.27
2018-02-01T02:06:37.431Z,99848.67
2018-02-01T02:09:05.089Z,99839.95
2018-02-01T02:11:32.717Z,99846.50
2018-02-01T02:14:00.963Z,99837.00
2018-02-01T02:16:28.520Z,99837.53
2018-02-01T02:18:56.424Z,99831.86
2018-02-01T02:21:24.031Z,99834.52
2018-02-01T02:23:52.039Z,99828.42
2018-02-01T02:26:19.636Z,99822.33
2018-02-01T02:28:47.192Z,99826.75
2018-02-01T02:31:14.938Z,99813.12
2018-02-01T02:33:42.876Z,99821.47
2018-02-01T02:36:10.843Z,99817.54
2018-02-01T02:38:38.431Z,99819.31
2018-02-01T02:41:06.424Z,99807.48
2018-02-01T02:43:34.369Z,99812.33
2018-02-01T02:46:01.968Z,99804.04
2018-02-01T02:48:29.572Z,99806.70
2018-02-01T02:50:57.120Z,99797.09
2018-02-01T02:53:24.713Z,99798.86
2018-02-01T02:55:52.288Z,99800.63
2018-02-01T02:58:20.712Z,99798.47
2018-02-01T03:00:48.715Z,99789.72
2018-02-01T03:03:16.268Z,99789.75
2018-02-01T03:05:44.000Z,99781.01
2018-02-01T03:08:11.587Z,99786.31
2018-02-01T03:10:39.174Z,99786.31
2018-02-01T03:13:06.724Z,99786.35
2018-02-01T03:15:34.333Z,99777.63
2018-02-01T03:18:01.883Z,99775.51
2018-02-01T03:20:29.434Z,99774.23
2018-02-01T03:22:57.540Z,99773.84
2018-02-01T03:25:25.431Z,99776.48
2018-02-01T03:27:52.980Z,99771.31
2018-02-01T03:30:20.565Z,99779.60
2018-02-01T03:32:48.478Z,99779.67
2018-02-01T03:35:16.027Z,99773.12
2018-02-01T03:37:43.637Z,99780.16
2018-02-01T03:40:11.193Z,99769.74
2018-02-01T03:42:38.741Z,99768.92
2018-02-01T03:45:07.303Z,99765.91
2018-02-01T03:47:35.488Z,99769.45
2018-02-01T03:50:03.996Z,99776.39
2018-02-01T03:52:32.061Z,99770.30
2018-02-01T03:54:59.669Z,99767.68
2018-02-01T03:57:27.244Z,99770.40
2018-02-01T03:59:54.796Z,99769.09
2018-02-01T04:02:22.398Z,99763.84
2018-02-01T04:04:49.947Z,99766.01
2018-02-01T04:07:17.530Z,99760.34
2018-02-01T04:09:45.077Z,99756.02
2018-02-01T04:12:12.803Z,99765.65
2018-02-01T04:14:40.406Z,99760.90
2018-02-01T04:17:07.996Z,99756.05
2018-02-01T04:19:35.592Z,99753.47
2018-02-01T04:22:03.178Z,99754.38
2018-02-01T04:24:30.772Z,99756.16
2018-02-01T04:26:58.568Z,99757.46
2018-02-01T04:29:26.676Z,99755.30
2018-02-01T04:31:54.222Z,99756.64
2018-02-01T04:34:21.770Z,99757.10
2018-02-01T04:36:49.355Z,99758.44
2018-02-01T04:39:16.898Z,99759.78
2018-02-01T04:41:45.290Z,99755.43
2018-02-01T04:44:12.840Z,99754.58
2018-02-01T04:46:41.345Z,99757.23
2018-02-01T04:49:08.891Z,99756.38
2018-02-01T04:51:36.480Z,99750.71
2018-02-01T04:54:04.022Z,99750.74
2018-02-01T04:56:31.606Z,99742.46
2018-02-01T04:58:59.212Z,99745.57
2018-02-01T05:01:26.786Z,99747.34
2018-02-01T05:03:54.330Z,99747.34
2018-02-01T05:06:21.923Z,99746.91
2018-02-01T05:08:49.888Z,99750.42
2018-02-01T05:11:17.487Z,99748.22
2018-02-01T05:13:45.031Z,99749.59
2018-02-01T05:16:14.059Z,99745.67
2018-02-01T05:18:41.976Z,99745.67
2018-02-01T05:21:09.531Z,99734.27
2018-02-01T05:23:37.092Z,99732.97
2018-02-01T05:26:04.683Z,99732.94
2018-02-01T05:28:32.278Z,99735.06
2018-02-01T05:30:59.885Z,99742.42
2018-02-01T05:33:27.452Z,99742.36
2018-02-01T05:35:55.047Z,99748.45
2018-02-01T05:38:22.595Z,99750.58
2018-02-01T05:40:50.811Z,99748.00
2018-02-01T05:43:18.898Z,99745.48
2018-02-01T05:45:47.044Z,99748.45
2018-02-01T05:48:14.622Z,99747.57
2018-02-01T05:50:42.210Z,99745.77
2018-02-01T05:53:10.211Z,99749.17
2018-02-01T05:55:37.816Z,99748.91
2018-02-01T05:58:05.371Z,99754.52
2018-02-01T06:00:32.928Z,99752.31
2018-02-01T06:03:00.524Z,99761.48
2018-02-01T06:05:28.212Z,99764.47
2018-02-01T06:07:55.823Z,99769.64
2018-02-01T06:10:23.381Z,99765.37
2018-02-01T06:12:50.931Z,99758.01
2018-02-01T06:15:18.494Z,99761.59
2018-02-01T06:17:46.111Z,99766.08
2018-02-01T06:20:13.674Z,99765.37
2018-02-01T06:22:41.288Z,99765.32
2018-02-01T06:25:08.858Z,99761.79
2018-02-01T06:27:36.484Z,99763.04
2018-02-01T06:30:04.040Z,99768.44
2018-02-01T06:32:31.588Z,99761.19
2018-02-01T06:34:59.206Z,99758.94
2018-02-01T06:37:27.307Z,99767.50
2018-02-01T06:39:55.915Z,99763.27
2018-02-01T06:42:23.831Z,99760.05
2018-02-01T06:44:51.513Z,99773.63
2018-02-01T06:47:20.605Z,99762.92
2018-02-01T06:49:48.213Z,99766.14
2018-02-01T06:52:15.782Z,99763.83
2018-02-01T06:54:44.420Z,99776.12
2018-02-01T06:57:12.698Z,99773.44
2018-02-01T06:59:40.286Z,99771.71
2018-02-01T07:02:08.750Z,99763.10
2018-02-01T07:04:36.674Z,99761.95
2018-02-01T07:07:05.092Z,99766.41
2018-02-01T07:09:32.988Z,99767.25
2018-02-01T07:12:01.046Z,99769.34
2018-02-01T07:14:29.220Z,99769.34
2018-02-01T07:16:56.874Z,99771.11
2018-02-01T07:19:24.908Z,99771.70
2018-02-01T07:21:52.464Z,99762.67
2018-02-01T07:24:20.087Z,99766.79
2018-02-01T07:26:47.755Z,99767.55
2018-02-01T07:29:16.126Z,99762.49
2018-02-01T07:31:43.951Z,99762.52
2018-02-01T07:34:11.573Z,99760.86
2018-02-01T07:36:39.445Z,99766.71
2018-02-01T07:39:07.048Z,99771.20
2018-02-01T07:41:35.625Z,99776.02
2018-02-01T07:44:03.355Z,99776.04
2018-02-01T07:46:31.035Z,99775.45
2018-02-01T07:48:58.811Z,99776.97
2018-02-01T07:51:26.358Z,99780.66
2018-02-01T07:53:53.983Z,99787.97
2018-02-01T07:56:21.632Z,99791.87
2018-02-01T07:58:49.819Z,99792.72
2018-02-01T08:01:17.711Z,99793.42
2018-02-01T08:03:45.279Z,99789.06
2018-02-01T08:06:12.882Z,99790.94
2018-02-01T08:08:40.494Z,99793.58
2018-02-01T08:11:08.096Z,99793.30
2018-02-01T08:13:35.728Z,99793.15
2018-02-01T08:16:03.618Z,99789.98
2018-02-01T08:18:31.861Z,99786.20
2018-02-01T08:20:59.502Z,99786.38
2018-02-01T08:23:27.085Z,99788.77
2018-02-01T08:25:54.674Z,99794.63
2018-02-01T08:28:23.178Z,99794.38
2018-02-01T08:30:51.887Z,99798.52
2018-02-01T08:33:19.472Z,99797.63
2018-02-01T08:35:47.093Z,99788.87
2018-02-01T08:38:14.718Z,99792.11
2018-02-01T08:40:42.263Z,99788.04
2018-02-01T08:43:09.816Z,99794.53
2018-02-01T08:45:37.440Z,99790.85
2018-02-01T08:48:05.407Z,99799.83
2018-02-01T08:50:32.969Z,99799.00
2018-02-01T08:53:00.571Z,99793.86
2018-02-01T08:55:28.115Z,99793.14
2018-02-01T08:57:55.708Z,99795.41
2018-02-01T09:00:23.272Z,99794.02
2018-02-01T09:02:50.891Z,99793.14
2018-02-01T09:05:18.487Z,99789.70
2018-02-01T09:07:46.079Z,99789.74
2018-02-01T09:10:14.044Z,99781.08
2018-02-01T09:12:41.716Z,99779.86
2018-02-01T09:15:09.317Z,99778.66
2018-02-01T09:17:36.944Z,99773.20
2018-02-01T09:20:04.633Z,99767.66
2018-02-01T09:22:32.367Z,99760.84
2018-02-01T09:24:59.914Z,99748.22
2018-02-01T09:27:27.920Z,99744.78
2018-02-01T09:29:55.467Z,99747.49
2018-02-01T09:32:23.055Z,99742.63
2018-02-01T09:34:50.650Z,99741.44
2018-02-01T09:37:18.236Z,99731.36
2018-02-01T09:39:45.854Z,99735.48
2018-02-01T09:42:13.434Z,99728.55
2018-02-01T09:44:41.103Z,99737.57
2018-02-01T09:47:08.795Z,99731.08
2018-02-01T09:49:36.892Z,99722.38
2018-02-01T09:52:04.501Z,99722.16
2018-02-01T09:54:32.067Z,99721.45
2018-02-01T09:56:59.646Z,99715.01
2018-02-01T09:59:27.489Z,99708.78
2018-02-01T10:01:55.035Z,99703.68
2018-02-01T10:04:22.699Z,99700.31
2018-02-01T10:06:50.661Z,99700.11
2018-02-01T10:09:18.251Z,99694.89
2018-02-01T10:11:45.819Z,99687.18
2018-02-01T10:14:15.314Z,99682.02
2018-02-01T10:16:42.912Z,99673.78
2018-02-01T10:19:10.455Z,99669.97
2018-02-01T10:21:38.047Z,99662.28
2018-02-01T10:24:05.592Z,99652.83
2018-02-01T10:26:34.140Z,99653.05
2018-02-01T10:29:01.716Z,99637.27
2018-02-01T10:31:29.259Z,99625.70
2018-02-01T10:33:56.855Z,99625.14
2018-02-01T10:36:24.690Z,99623.47
2018-02-01T10:38:52.641Z,99621.05
2018-02-01T10:41:20.211Z,99609.91
2018-02-01T10:43:47.816Z,99606.05
2018-02-01T10:46:15.366Z,99600.93
2018-02-01T10:48:42.963Z,99595.14
2018-02-01T10:51:10.555Z,99595.48
2018-02-01T10:53:38.153Z,99604.52
2018-02-01T10:56:05.762Z,99589.50
2018-02-01T10:58:33.350Z,99579.86
2018-02-01T11:01:00.916Z,99568.71
2018-02-01T11:03:28.513Z,99568.48
2018-02-01T11:05:57.467Z,99560.38
2018-02-01T11:08:26.040Z,99556.32
2018-02-01T11:10:53.591Z,99557.42
2018-02-01T11:13:21.716Z,99551.29
2018-02-01T11:15:49.320Z,99549.79
2018-02-01T11:18:16.930Z,99540.84
2018-02-01T11:20:44.563Z,99538.51
2018-02-01T11:23:12.107Z,99530.83
2018-02-01T11:25:39.732Z,99532.05
2018-02-01T11:28:07.329Z,99528.45
2018-02-01T11:30:34.870Z,99523.81
2018-02-01T11:33:02.941Z,99518.70
2018-02-01T11:35:30.789Z,99512.33
2018-02-01T11:37:58.469Z,99518.13
2018-02-01T11:40:26.388Z,99508.33
2018-02-01T11:42:53.937Z,99501.00
2018-02-01T11:45:21.490Z,99497.69
2018-02-01T11:47:49.083Z,99494.42
2018-02-01T11:50:16.681Z,99487.09
2018-02-01T11:52:44.224Z,99488.59
2018-02-01T11:55:12.698Z,99485.09
2018-02-01T11:57:40.342Z,99483.37
2018-02-01T12:00:07.900Z,99488.45
2018-02-01T12:02:35.528Z,99488.67
2018-02-01T12:05:03.067Z,99488.00
2018-02-01T12:07:30.610Z,99472.80
2018-02-01T12:09:58.207Z,99472.08
2018-02-01T12:12:26.144Z,99470.83
2018-02-01T12:14:53.824Z,99454.73
2018-02-01T12:17:21.436Z,99468.41
2018-02-01T12:19:49.156Z,99455.80
2018-02-01T12:22:17.639Z,99460.28
2018-02-01T12:24:45.252Z,99447.05
2018-02-01T12:27:12.993Z,99432.94
2018-02-01T12:29:41.440Z,99430.47
2018-02-01T12:32:10.000Z,99430.06
2018-02-01T12:34:37.555Z,99430.59
2018-02-01T12:37:05.160Z,99418.78
2018-02-01T12:39:33.067Z,99416.66
2018-02-01T12:42:01.206Z,99415.38
2018-02-01T12:44:29.028Z,99417.31
2018-02-01T12:46:56.646Z,99418.22
2018-02-01T12:49:24.548Z,99419.23
2018-02-01T12:51:52.168Z,99424.02
2018-02-01T12:54:19.760Z,99420.28
2018-02-01T12:56:47.454Z,99408.16
2018-02-01T12:59:15.863Z,99410.82
2018-02-01T13:01:43.407Z,99404.75
2018-02-01T13:04:11.501Z,99404.98
2018-02-01T13:06:39.198Z,99405.05
2018-02-01T13:09:06.804Z,99403.88
2018-02-01T13:11:34.407Z,99394.81
2018-02-01T13:14:01.998Z,99394.21
2018-02-01T13:16:29.596Z,99392.64
2018-02-01T13:18:57.188Z,99390.30
2018-02-01T13:21:24.799Z,99387.12
2018-02-01T13:23:52.346Z,99399.06
2018-02-01T13:26:20.667Z,99392.22
2018-02-01T13:28:48.263Z,99396.33
2018-02-01T13:31:16.684Z,99391.70
2018-02-01T13:33:44.280Z,99387.54
2018-02-01T13:36:13.040Z,99397.20
2018-02-01T13:38:40.735Z,99404.97
2018-02-01T13:41:08.506Z,99405.98
2018-02-01T13:43:36.269Z,99408.43
2018-02-01T13:46:03.917Z,99409.16
2018-02-01T13:48:31.478Z,99408.78
2018-02-01T13:50:59.029Z,99398.99
2018-02-01T13:53:26.654Z,99400.02
2018-02-01T13:55:54.786Z,99398.39
2018-02-01T13:58:22.472Z,99396.41
2018-02-01T14:00:50.619Z,99394.83
2018-02-01T14:03:18.998Z,99400.27
2018-02-01T14:05:46.610Z,99395.16
2018-02-01T14:08:14.171Z,99382.39
2018-02-01T14:10:41.947Z,99385.05
2018-02-01T14:13:09.755Z,99375.52
2018-02-01T14:15:37.364Z,99376.36
2018-02-01T14:18:04.955Z,99378.68
2018-02-01T14:20:32.555Z,99378.10
2018-02-01T14:23:00.385Z,99377.25
2018-02-01T14:25:27.978Z,99377.95
2018-02-01T14:27:55.535Z,99368.72
2018-02-01T14:30:23.144Z,99367.10
2018-02-01T14:32:51.617Z,99368.22
2018-02-01T14:35:19.164Z,99376.64
2018-02-01T14:37:47.582Z,99378.55
2018-02-01T14:40:15.389Z,99379.34
2018-02-01T14:42:43.239Z,99382.14
2018-02-01T14:45:10.810Z,99382.89
2018-02-01T14:47:39.350Z,99380.91
2018-02-01T14:50:06.949Z,99379.39
2018-02-01T14:52:34.641Z,99381.77
2018-02-01T14:55:02.971Z,99381.98
2018-02-01T14:57:30.531Z,99381.25
2018-02-01T14:59:58.075Z,99387.22
2018-02-01T15:02:25.768Z,99395.81
2018-02-01T15:04:53.356Z,99393.40
2018-02-01T15:07:21.484Z,99387.88
2018-02-01T15:09:49.912Z,99389.00
2018-02-01T15:12:17.503Z,99382.88
2018-02-01T15:14:45.073Z,99386.52
2018-02-01T15:17:12.899Z,99393.23
2018-02-01T15:19:40.617Z,99389.48
2018-02-01T15:22:08.658Z,99389.64
2018-02-01T15:24:36.215Z,99397.08
2018-02-01T15:27:04.168Z,99387.66
2018-02-01T15:29:32.334Z,99388.44
2018-02-01T15:32:01.045Z,99388.60
2018-02-01T15:34:29.685Z,99390.56
2018-02-01T15:36:58.807Z,99387.39
2018-02-01T15:39:26.769Z,99385.36
2018-02-01T15:41:55.257Z,99386.29
2018-02-01T15:44:23.257Z,99393.84
2018-02-01T15:46:51.534Z,99389.72
2018-02-01T15:49:20.532Z,99397.00
2018-02-01T15:51:48.905Z,99385.88
2018-02-01T15:54:16.476Z,99393.11
2018-02-01T15:56:44.476Z,99383.63
2018-02-01T15:59:12.830Z,99381.62
2018-02-01T16:01:40.833Z,99380.46
2018-02-01T16:04:08.769Z,99382.88
2018-02-01T16:06:36.949Z,99386.05
2018-02-01T16:09:05.419Z,99386.22
2018-02-01T16:11:33.621Z,99387.25
2018-02-01T16:14:02.492Z,99386.52
2018-02-01T16:16:31.726Z,99390.15
2018-02-01T16:19:01.566Z,99385.41
2018-02-01T16:21:30.079Z,99394.78
2018-02-01T16:24:00.206Z,99381.35
2018-02-01T16:26:29.101Z,99376.18
2018-02-01T16:28:58.792Z,99378.50
2018-02-01T16:31:28.313Z,99376.43
2018-02-01T16:33:59.059Z,99383.54
2018-02-01T16:36:28.052Z,99392.86
2018-02-01T16:38:59.185Z,99392.59
2018-02-01T16:41:28.499Z,99387.00
2018-02-01T16:43:57.160Z,99389.27
2018-02-01T16:46:27.218Z,99395.94
2018-02-01T16:48:55.243Z,99401.73
2018-02-01T16:51:24.753Z,99407.14
2018-02-01T16:53:53.248Z,99408.55
2018-02-01T16:56:22.432Z,99405.55
2018-02-01T16:58:52.666Z,99404.80
2018-02-01T17:01:21.259Z,99403.16
2018-02-01T17:03:51.649Z,99408.53
2018-02-01T17:06:20.244Z,99403.80
2018-02-01T17:08:48.715Z,99403.94
2018-02-01T17:11:17.611Z,99409.23
2018-02-01T17:13:46.300Z,99410.66
2018-02-01T17:16:15.693Z,99407.66
2018-02-01T17:18:44.076Z,99406.02
2018-02-01T17:21:13.577Z,99396.86
2018-02-01T17:23:43.941Z,99408.37
2018-02-01T17:26:12.180Z,99409.78
2018-02-01T17:28:43.018Z,99403.78
2018-02-01T17:31:11.725Z,99400.77
2018-02-01T17:33:40.198Z,99407.07
2018-02-01T17:36:09.335Z,99398.81
2018-02-01T17:38:37.379Z,99399.33
2018-02-01T17:41:05.665Z,99407.26
2018-02-01T17:43:34.936Z,99414.88
2018-02-01T17:46:04.240Z,99419.44
2018-02-01T17:48:34.742Z,99419.95
2018-02-01T17:51:03.125Z,99416.20
2018-02-01T17:53:32.154Z,99424.61
2018-02-01T17:56:00.637Z,99428.31
2018-02-01T17:58:29.189Z,99422.63
2018-02-01T18:00:59.921Z,99425.27
2018-02-01T18:03:29.026Z,99431.55
2018-02-01T18:05:57.763Z,99429.86
2018-02-01T18:08:26.269Z,99420.33
2018-02-01T18:10:55.518Z,99422.11
2018-02-01T18:13:23.771Z,99415.55
2018-02-01T18:15:53.568Z,99410.77
2018-02-01T18:18:23.159Z,99421.32
2018-02-01T18:20:52.591Z,99428.87
2018-02-01T18:23:20.856Z,99416.58
2018-02-01T18:25:51.015Z,99414.58
2018-02-01T18:28:19.823Z,99422.13
2018-02-01T18:30:50.602Z,99426.06
2018-02-01T18:33:19.588Z,99423.92
2018-02-01T18:35:49.207Z,99421.80
2018-02-01T18:38:19.521Z,99429.30
2018-02-01T18:40:48.353Z,99424.95
2018-02-01T18:43:17.654Z,99423.30
2018-02-01T18:45:46.675Z,99426.41
2018-02-01T18:48:16.254Z,99425.69
2018-02-01T18:50:45.721Z,99431.92
2018-02-01T18:53:15.227Z,99433.72
2018-02-01T18:58:17.975Z,99443.64
2018-02-01T19:00:46.871Z,99444.13
2018-02-01T19:03:16.414Z,99439.75
2018-02-01T19:05:44.546Z,99438.44
2018-02-01T19:08:15.206Z,99446.41
2018-02-01T19:10:43.351Z,99443.49
2018-02-01T19:13:11.468Z,99435.62
2018-02-01T19:15:40.215Z,99433.88
2018-02-01T19:18:08.905Z,99439.60
2018-02-01T19:20:38.305Z,99445.79
2018-02-01T19:23:07.675Z,99434.06
2018-02-01T19:25:36.190Z,99441.47
2018-02-01T19:28:06.743Z,99441.14
2018-02-01T19:30:35.661Z,99445.12
2018-02-01T19:33:04.119Z,99449.49
2018-02-01T19:35:32.520Z,99454.36
2018-02-01T19:38:01.576Z,99458.86
2018-02-01T19:40:29.945Z,99469.16
2018-02-01T19:43:00.207Z,99472.64
2018-02-01T19:45:29.055Z,99473.10
2018-02-01T19:47:58.463Z,99470.06
2018-02-01T19:50:27.652Z,99471.38
2018-02-01T19:52:56.889Z,99473.58
2018-02-01T19:55:25.136Z,99474.47
2018-02-01T19:57:54.124Z,99474.08
2018-02-01T20:00:22.581Z,99487.22
2018-02-01T20:02:51.701Z,99483.79
2018-02-01T20:05:22.542Z,99477.73
2018-02-01T20:07:51.160Z,99480.27
2018-02-01T20:10:21.273Z,99481.25
2018-02-01T20:12:50.989Z,99486.16
2018-02-01T20:15:19.817Z,99490.66
2018-02-01T20:17:49.658Z,99485.83
2018-02-01T20:20:19.365Z,99492.44
2018-02-01T20:22:47.660Z,99488.28
2018-02-01T20:25:16.123Z,99477.73
2018-02-01T20:27:46.886Z,99482.95
2018-02-01T20:30:16.970Z,99472.91
2018-02-01T20:32:45.078Z,99479.98
2018-02-01T20:35:14.079Z,99483.92
2018-02-01T20:37:43.987Z,99477.36
2018-02-01T20:40:14.606Z,99472.95
2018-02-01T20:42:44.072Z,99469.91
2018-02-01T20:45:13.289Z,99472.20
2018-02-01T20:47:42.501Z,99462.20
2018-02-01T20:50:10.555Z,99458.39
2018-02-01T20:52:38.843Z,99458.86
2018-02-01T20:55:06.834Z,99458.48
2018-02-01T20:57:35.092Z,99457.25
2018-02-01T21:00:04.071Z,99456.91
2018-02-01T21:02:32.258Z,99477.62
2018-02-01T21:05:00.520Z,99449.21
2018-02-01T21:07:32.288Z,99471.66
2018-02-01T21:10:02.503Z,99469.03
2018-02-01T21:12:30.520Z,99468.22
2018-02-01T21:14:59.563Z,99471.35
2018-02-01T21:17:28.048Z,99472.20
2018-02-01T21:19:57.551Z,99477.53
2018-02-01T21:22:27.459Z,99476.30
2018-02-01T21:24:56.767Z,99485.92
2018-02-01T21:27:25.061Z,99476.73
2018-02-01T21:29:53.486Z,99487.81
2018-02-01T21:32:21.815Z,99484.35
2018-02-01T21:34:50.421Z,99478.72
2018-02-01T21:37:19.592Z,99467.84
2018-02-01T21:39:47.763Z,99480.97
2018-02-01T21:42:15.857Z,99480.97
2018-02-01T21:44:44.543Z,99482.74
2018-02-01T21:47:13.403Z,99486.30
2018-02-01T21:49:42.028Z,99492.81
2018-02-01T21:52:10.013Z,99491.13
2018-02-01T21:54:38.056Z,99493.33
2018-02-01T21:57:06.728Z,99492.94
2018-02-01T21:59:35.088Z,99495.14
2018-02-01T22:02:03.363Z,99494.75
2018-02-01T22:04:32.294Z,99504.41
2018-02-01T22:07:00.630Z,99497.84
2018-02-01T22:09:28.726Z,99505.72
2018-02-01T22:11:56.815Z,99509.70
2018-02-01T22:14:24.806Z,99511.02
2018-02-01T22:16:52.757Z,99504.45
2018-02-01T22:19:21.602Z,99502.67
2018-02-01T22:21:49.601Z,99497.05
2018-02-01T22:24:17.688Z,99490.56
2018-02-01T22:26:45.662Z,99494.03
2018-02-01T22:29:13.210Z,99495.34
2018-02-01T22:31:40.791Z,99494.97
2018-02-01T22:34:08.325Z,99488.48
2018-02-01T22:36:35.995Z,99484.59
2018-02-01T22:39:03.981Z,99485.02
2018-02-01T22:41:32.886Z,99475.45
2018-02-01T22:44:00.430Z,99478.58
2018-02-01T22:46:27.979Z,99485.61
2018-02-01T22:48:55.563Z,99486.53
2018-02-01T22:51:23.107Z,99486.06
2018-02-01T22:53:50.988Z,99472.09
2018-02-01T22:56:18.525Z,99482.64
2018-02-01T22:58:46.099Z,99482.22
2018-02-01T23:01:13.631Z,99476.58
2018-02-01T23:03:41.210Z,99469.59
2018-02-01T23:06:08.819Z,99466.59
2018-02-01T23:08:36.422Z,99474.92
2018-02-01T23:11:04.031Z,99477.09
2018-02-01T23:13:31.876Z,99482.34
2018-02-01T23:15:59.622Z,99478.86
2018-02-01T23:18:27.410Z,99463.55
2018-02-01T23:20:54.995Z,99470.15
2018-02-01T23:23:22.629Z,99472.77
2018-02-01T23:25:50.157Z,99475.44
2018-02-01T23:28:17.693Z,99474.13
2018-02-01T23:30:45.287Z,99460.16
2018-02-01T23:33:12.883Z,99456.26
2018-02-01T23:35:40.591Z,99460.62
2018-02-01T23:38:08.938Z,99456.22
2018-02-01T23:40:36.511Z,99447.92
2018-02-01T23:43:04.127Z,99445.31
2018-02-01T23:45:31.715Z,99446.23
2018-02-01T23:47:59.249Z,99445.34
2018-02-01T23:50:26.826Z,99452.75
2018-02-01T23:55:27.104Z,99440.52
2018-02-01T23:57:54.713Z,99442.67
